Nagoya, Japan
Current Conditions -  °F | °C
As of 3:30 AM on Friday 24 Oct 2014 (Local Time) from RJGG Reporting Station
Broken Clouds Broken Clouds  
Wind Chill: 59°   Ceiling: 4500
Heat Index: 59°   Visibility: 6mi
Dew Point: 52°   Wind: 5mph
Humidity: 77%   Direction: 40°NE
Pressure: 30.09"   Gusts: NA
Location:  35.15°N, 136.91°E
Report Text: RJGG 231830Z 04004KT 9999 FEW025 BKN045 15/11 Q1019 NOSIG
Loading
Personal Weather Stations






























Interactive Weather Map
Tropical Storm Tracking
New forecast layout! Learn more

10-Day Weather Forecast

Advertisements
Track Severe Weather on mobile